createdAt,value
2023-05-05T00:02:04.196Z,16.30
2023-05-05T00:04:30.592Z,16.31
2023-05-05T00:06:57.237Z,16.31
2023-05-05T00:09:23.665Z,16.29
2023-05-05T00:11:50.029Z,16.29
2023-05-05T00:14:16.406Z,16.31
2023-05-05T00:16:43.082Z,16.35
2023-05-05T00:19:09.501Z,16.36
2023-05-05T00:21:35.880Z,16.35
2023-05-05T00:24:02.283Z,16.31
2023-05-05T00:26:28.724Z,16.31
2023-05-05T00:28:55.232Z,16.30
2023-05-05T00:31:21.728Z,16.31
2023-05-05T00:33:48.184Z,16.30
2023-05-05T00:36:14.771Z,16.34
2023-05-05T00:38:41.192Z,16.32
2023-05-05T00:41:07.632Z,16.32
2023-05-05T00:43:34.135Z,16.29
2023-05-05T00:46:23.786Z,16.31
2023-05-05T00:48:50.906Z,16.32
2023-05-05T00:51:17.814Z,16.32
2023-05-05T00:53:45.173Z,16.33
2023-05-05T00:56:15.966Z,16.36
2023-05-05T00:58:43.147Z,16.38
2023-05-05T01:01:10.731Z,16.36
2023-05-05T01:03:38.705Z,16.34
2023-05-05T01:06:31.669Z,16.33
2023-05-05T01:09:23.983Z,16.30
2023-05-05T01:12:04.421Z,16.30
2023-05-05T01:14:43.249Z,16.30
2023-05-05T01:17:21.353Z,16.22
2023-05-05T01:20:15.489Z,16.18
2023-05-05T01:22:49.917Z,16.16
2023-05-05T01:25:49.070Z,16.18
2023-05-05T01:28:34.668Z,16.16
2023-05-05T01:31:23.747Z,16.20
2023-05-05T01:33:55.134Z,16.18
2023-05-05T01:36:27.823Z,16.23
2023-05-05T01:38:59.744Z,16.25
2023-05-05T01:41:41.145Z,16.28
2023-05-05T01:44:09.761Z,16.28
2023-05-05T01:46:36.787Z,16.31
2023-05-05T01:49:04.937Z,16.32
2023-05-05T01:51:32.271Z,16.39
2023-05-05T01:54:01.061Z,16.39
2023-05-05T01:56:28.755Z,16.41
2023-05-05T01:58:55.819Z,16.40
2023-05-05T02:01:24.638Z,16.34
2023-05-05T02:03:51.267Z,16.16
2023-05-05T02:06:19.387Z,15.97
2023-05-05T02:08:47.102Z,15.84
2023-05-05T02:11:14.021Z,15.86
2023-05-05T02:13:42.623Z,15.81
2023-05-05T02:16:10.212Z,15.84
2023-05-05T02:18:37.433Z,15.87
2023-05-05T02:21:04.019Z,15.85
2023-05-05T02:23:30.630Z,15.85
2023-05-05T02:26:03.670Z,15.84
2023-05-05T02:28:47.461Z,15.87
2023-05-05T02:31:14.152Z,15.85
2023-05-05T02:33:41.761Z,15.81
2023-05-05T02:36:14.490Z,15.74
2023-05-05T02:38:43.761Z,15.78
2023-05-05T02:41:12.526Z,15.82
2023-05-05T02:43:41.506Z,15.83
2023-05-05T02:46:07.976Z,15.85
2023-05-05T02:48:34.606Z,15.82
2023-05-05T02:51:01.057Z,15.75
2023-05-05T02:53:27.948Z,15.72
2023-05-05T02:56:06.109Z,15.67
2023-05-05T02:58:54.643Z,15.66
2023-05-05T03:01:33.108Z,15.60
2023-05-05T03:04:11.470Z,15.56
2023-05-05T03:06:41.428Z,15.56
2023-05-05T03:09:25.177Z,15.54
2023-05-05T03:12:01.054Z,15.58
2023-05-05T03:14:30.627Z,15.60
2023-05-05T03:16:59.735Z,15.60
2023-05-05T03:19:26.260Z,15.58
2023-05-05T03:21:52.922Z,15.57
2023-05-05T03:24:20.508Z,15.57
2023-05-05T03:26:47.971Z,15.57
2023-05-05T03:29:15.096Z,15.58
2023-05-05T03:31:42.072Z,15.57
2023-05-05T03:34:08.808Z,15.56
2023-05-05T03:36:36.019Z,15.57
2023-05-05T03:39:02.430Z,15.57
2023-05-05T03:41:28.851Z,15.56
2023-05-05T03:43:55.280Z,15.50
2023-05-05T03:46:21.872Z,15.46
2023-05-05T03:48:48.619Z,15.44
2023-05-05T03:51:15.539Z,15.41
2023-05-05T03:53:41.970Z,15.39
2023-05-05T03:56:08.426Z,15.41
2023-05-05T03:58:34.902Z,15.39
2023-05-05T04:01:01.714Z,15.37
2023-05-05T04:03:28.206Z,15.35
2023-05-05T04:05:54.649Z,15.30
2023-05-05T04:08:21.124Z,15.27
2023-05-05T04:10:47.507Z,15.26
2023-05-05T04:13:13.975Z,15.24
2023-05-05T04:15:46.866Z,15.15
2023-05-05T04:18:13.280Z,15.12
2023-05-05T04:20:39.708Z,15.05
2023-05-05T04:23:06.090Z,15.02
2023-05-05T04:25:32.639Z,15.04
2023-05-05T04:27:59.072Z,15.05
2023-05-05T04:30:25.494Z,15.07
2023-05-05T04:32:52.028Z,15.07
2023-05-05T04:35:18.428Z,15.10
2023-05-05T04:37:44.858Z,15.10
2023-05-05T04:40:11.522Z,15.13
2023-05-05T04:42:37.946Z,15.13
2023-05-05T04:45:04.838Z,15.14
2023-05-05T04:47:31.296Z,15.15
2023-05-05T04:49:57.739Z,15.17
2023-05-05T04:52:24.129Z,15.20
2023-05-05T04:54:50.606Z,15.20
2023-05-05T04:57:16.978Z,15.22
2023-05-05T04:59:43.341Z,15.20
2023-05-05T05:02:09.721Z,15.20
2023-05-05T05:04:36.162Z,15.22
2023-05-05T05:07:02.539Z,15.21
2023-05-05T05:09:28.935Z,15.22
2023-05-05T05:11:59.772Z,15.21
2023-05-05T05:14:27.993Z,15.24
2023-05-05T05:16:54.563Z,15.23
2023-05-05T05:19:21.193Z,15.24
2023-05-05T05:21:47.533Z,15.27
2023-05-05T05:24:13.895Z,15.24
2023-05-05T05:26:40.310Z,15.26
2023-05-05T05:29:07.087Z,15.28
2023-05-05T05:31:34.328Z,15.29
2023-05-05T05:34:00.902Z,15.29
2023-05-05T05:36:27.263Z,15.30
2023-05-05T05:38:53.670Z,15.32
2023-05-05T05:41:20.046Z,15.36
2023-05-05T05:43:46.465Z,15.37
2023-05-05T05:46:12.912Z,15.39
2023-05-05T05:48:39.401Z,15.41
2023-05-05T05:51:05.838Z,15.41
2023-05-05T05:53:32.760Z,15.44
2023-05-05T05:55:59.195Z,15.47
2023-05-05T05:58:25.619Z,15.50
2023-05-05T06:00:52.023Z,15.50
2023-05-05T06:03:18.665Z,15.53
2023-05-05T06:05:46.192Z,15.57
2023-05-05T06:08:12.708Z,15.58
2023-05-05T06:10:39.842Z,15.60
2023-05-05T06:13:06.446Z,15.64
2023-05-05T06:15:32.901Z,15.68
2023-05-05T06:17:59.382Z,15.71
2023-05-05T06:20:26.096Z,15.72
2023-05-05T06:22:52.811Z,15.79
2023-05-05T06:25:19.178Z,15.84
2023-05-05T06:27:45.991Z,15.92
2023-05-05T06:30:12.964Z,15.94
2023-05-05T06:32:39.410Z,15.97
2023-05-05T06:35:06.980Z,16.02
2023-05-05T06:37:33.373Z,16.06
2023-05-05T06:39:59.889Z,16.10
2023-05-05T06:42:26.303Z,16.16
2023-05-05T06:44:52.757Z,16.19
2023-05-05T06:47:19.199Z,16.23
2023-05-05T06:49:45.613Z,16.24
2023-05-05T06:52:12.548Z,16.31
2023-05-05T06:54:38.984Z,16.33
2023-05-05T06:57:05.565Z,16.37
2023-05-05T06:59:32.432Z,16.41
2023-05-05T07:01:59.290Z,16.46
2023-05-05T07:04:26.755Z,16.47
2023-05-05T07:06:55.130Z,16.50
2023-05-05T07:09:21.574Z,16.57
2023-05-05T07:11:47.988Z,16.60
2023-05-05T07:14:14.627Z,16.62
2023-05-05T07:16:41.441Z,16.66
2023-05-05T07:19:08.116Z,16.68
2023-05-05T07:21:34.972Z,16.73
2023-05-05T07:24:03.009Z,16.77
2023-05-05T07:26:29.484Z,16.82
2023-05-05T07:28:57.217Z,16.88
2023-05-05T07:31:23.656Z,16.94
2023-05-05T07:33:50.180Z,16.99
2023-05-05T07:36:17.745Z,17.09
2023-05-05T07:38:44.313Z,17.11
2023-05-05T07:41:12.785Z,17.17
2023-05-05T07:43:42.294Z,17.23
2023-05-05T07:46:10.020Z,17.28
2023-05-05T07:48:36.530Z,17.33
2023-05-05T07:51:03.047Z,17.47
2023-05-05T07:53:29.591Z,17.65
2023-05-05T07:55:56.075Z,17.86
2023-05-05T07:58:22.556Z,18.04
2023-05-05T08:00:50.201Z,18.26
2023-05-05T08:03:18.134Z,18.51
2023-05-05T08:05:44.563Z,18.87
2023-05-05T08:08:11.126Z,19.23
2023-05-05T08:10:37.559Z,19.68
2023-05-05T08:13:03.978Z,19.91
2023-05-05T08:15:30.612Z,20.10
2023-05-05T08:17:57.027Z,20.49
2023-05-05T08:20:28.097Z,20.76
2023-05-05T08:22:54.605Z,20.80
2023-05-05T08:25:21.181Z,20.80
2023-05-05T08:27:47.581Z,20.88
2023-05-05T08:30:14.223Z,20.98
2023-05-05T08:32:40.781Z,21.15
2023-05-05T08:35:07.890Z,21.36
2023-05-05T08:37:34.664Z,21.43
2023-05-05T08:40:01.081Z,21.34
2023-05-05T08:42:37.268Z,21.33
2023-05-05T08:45:06.902Z,21.71
2023-05-05T08:47:34.564Z,21.70
2023-05-05T08:50:01.729Z,21.48
2023-05-05T08:52:33.636Z,21.19
2023-05-05T08:55:14.323Z,21.00
2023-05-05T08:57:48.756Z,20.96
2023-05-05T09:00:16.106Z,20.88
2023-05-05T09:02:43.048Z,20.84
2023-05-05T09:05:10.038Z,20.93
2023-05-05T09:07:36.854Z,20.98
2023-05-05T09:10:04.753Z,20.99
2023-05-05T09:12:31.784Z,21.14
2023-05-05T09:14:59.398Z,21.20
2023-05-05T09:17:26.567Z,21.13
2023-05-05T09:20:08.050Z,21.00
2023-05-05T09:22:42.366Z,20.88
2023-05-05T09:25:11.071Z,20.87
2023-05-05T09:27:39.491Z,20.77
2023-05-05T09:30:06.576Z,20.71
2023-05-05T09:32:47.445Z,20.61
2023-05-05T09:35:14.768Z,20.48
2023-05-05T09:37:41.634Z,20.30
2023-05-05T09:40:09.268Z,20.16
2023-05-05T09:42:37.423Z,20.03
2023-05-05T09:45:07.280Z,19.84
2023-05-05T09:47:35.552Z,19.77
2023-05-05T09:50:02.116Z,19.75
2023-05-05T09:52:28.672Z,19.69
2023-05-05T09:54:56.414Z,19.58
2023-05-05T09:57:27.548Z,19.51
2023-05-05T10:00:02.424Z,19.45
2023-05-05T10:02:37.403Z,19.43
2023-05-05T10:05:09.353Z,19.42
2023-05-05T10:07:36.883Z,19.36
2023-05-05T10:10:08.348Z,19.29
2023-05-05T10:12:35.569Z,19.20
2023-05-05T10:15:03.156Z,19.09
2023-05-05T10:17:36.516Z,18.97
2023-05-05T10:20:06.726Z,18.87
2023-05-05T10:22:34.871Z,18.78
2023-05-05T10:25:06.394Z,18.58
2023-05-05T10:27:37.942Z,18.32
2023-05-05T10:30:06.337Z,18.24
2023-05-05T10:33:00.558Z,18.18
2023-05-05T10:35:34.641Z,18.08
2023-05-05T10:38:01.594Z,18.05
2023-05-05T10:40:28.218Z,18.01
2023-05-05T10:42:55.069Z,17.97
2023-05-05T10:45:21.553Z,17.95
2023-05-05T10:47:49.277Z,17.93
2023-05-05T10:50:17.522Z,17.95
2023-05-05T10:53:08.928Z,17.93
2023-05-05T10:55:46.433Z,17.90
2023-05-05T10:58:46.955Z,17.85
2023-05-05T11:01:34.509Z,17.78
2023-05-05T11:04:23.566Z,17.72
2023-05-05T11:07:09.649Z,17.66
2023-05-05T11:09:57.668Z,17.53
2023-05-05T11:12:24.272Z,17.52
2023-05-05T11:15:26.146Z,17.49
2023-05-05T11:17:53.493Z,17.44
2023-05-05T11:20:35.724Z,17.44
2023-05-05T11:23:02.026Z,17.35
2023-05-05T11:25:34.353Z,17.33
2023-05-05T11:28:13.354Z,17.37
2023-05-05T11:30:55.042Z,17.31
2023-05-05T11:33:31.594Z,17.33
2023-05-05T11:36:04.110Z,17.38
2023-05-05T11:39:00.329Z,17.40
2023-05-05T11:41:32.946Z,17.33
2023-05-05T11:44:17.021Z,17.23
2023-05-05T11:46:52.584Z,17.24
2023-05-05T11:49:29.541Z,17.21
2023-05-05T11:52:00.467Z,17.13
2023-05-05T11:54:27.311Z,17.05
2023-05-05T11:56:55.021Z,17.01
2023-05-05T11:59:21.671Z,17.07
2023-05-05T12:01:48.210Z,17.06
2023-05-05T12:04:15.985Z,17.06
2023-05-05T12:06:42.915Z,16.87
2023-05-05T12:09:15.882Z,16.85
2023-05-05T12:11:51.979Z,16.85
2023-05-05T12:14:18.528Z,16.80
2023-05-05T12:17:20.669Z,16.72
2023-05-05T12:19:51.208Z,16.75
2023-05-05T12:22:26.156Z,16.82
2023-05-05T12:24:56.086Z,16.80
2023-05-05T12:27:23.270Z,16.75
2023-05-05T12:29:50.893Z,16.77
2023-05-05T12:32:21.703Z,16.83
2023-05-05T12:34:49.171Z,16.74
2023-05-05T12:37:18.916Z,16.71
2023-05-05T12:39:45.504Z,16.60
2023-05-05T12:42:11.994Z,16.52
2023-05-05T12:44:39.560Z,16.54
2023-05-05T12:47:06.907Z,16.57
2023-05-05T12:49:50.296Z,16.59
2023-05-05T12:52:16.946Z,16.64
2023-05-05T12:54:59.872Z,16.62
2023-05-05T12:57:26.390Z,16.57
2023-05-05T12:59:53.263Z,16.52
2023-05-05T13:02:20.719Z,16.55
2023-05-05T13:04:54.137Z,16.59
2023-05-05T13:07:21.800Z,16.68
2023-05-05T13:09:49.492Z,16.73
2023-05-05T13:12:17.756Z,16.69
2023-05-05T13:14:44.481Z,16.72
2023-05-05T13:17:11.473Z,16.77
2023-05-05T13:19:42.372Z,16.71
2023-05-05T13:22:10.047Z,16.56
2023-05-05T13:24:49.639Z,16.55
2023-05-05T13:27:18.431Z,16.58
2023-05-05T13:29:44.811Z,16.60
2023-05-05T13:32:11.445Z,16.62
2023-05-05T13:34:39.251Z,16.59
2023-05-05T13:37:05.988Z,16.53
2023-05-05T13:39:32.414Z,16.50
2023-05-05T13:41:58.813Z,16.54
2023-05-05T13:44:25.241Z,16.54
2023-05-05T13:46:51.653Z,16.56
2023-05-05T13:49:18.127Z,16.54
2023-05-05T13:51:46.616Z,16.41
2023-05-05T13:54:13.158Z,16.41
2023-05-05T13:56:39.549Z,16.41
2023-05-05T13:59:05.933Z,16.32
2023-05-05T14:01:32.508Z,16.22
2023-05-05T14:03:59.109Z,16.16
2023-05-05T14:06:25.918Z,16.14
2023-05-05T14:08:52.399Z,16.14
2023-05-05T14:11:20.935Z,16.16
2023-05-05T14:13:47.999Z,16.08
2023-05-05T14:16:14.509Z,15.99
2023-05-05T14:18:41.016Z,15.92
2023-05-05T14:21:07.523Z,15.93
2023-05-05T14:23:33.946Z,15.99
2023-05-05T14:26:00.745Z,16.06
2023-05-05T14:28:27.154Z,16.05
2023-05-05T14:30:53.699Z,15.96
2023-05-05T14:33:20.255Z,16.05
2023-05-05T14:35:46.644Z,16.09
2023-05-05T14:38:13.117Z,16.13
2023-05-05T14:40:39.529Z,16.21
2023-05-05T14:43:06.590Z,16.22
2023-05-05T14:45:33.319Z,16.28
2023-05-05T14:47:59.804Z,16.39
2023-05-05T14:50:26.439Z,16.34
2023-05-05T14:52:52.819Z,16.31
2023-05-05T14:55:19.391Z,16.33
2023-05-05T14:57:45.896Z,16.43
2023-05-05T15:00:12.808Z,16.53
2023-05-05T15:02:39.263Z,16.67
2023-05-05T15:05:06.241Z,16.84
2023-05-05T15:07:32.759Z,16.96
2023-05-05T15:09:59.222Z,17.12
2023-05-05T15:12:26.028Z,17.36
2023-05-05T15:14:52.433Z,17.71
2023-05-05T15:17:18.901Z,18.03
2023-05-05T15:19:45.309Z,18.40
2023-05-05T15:22:11.798Z,18.60
2023-05-05T15:24:38.221Z,18.69
2023-05-05T15:27:04.740Z,18.67
2023-05-05T15:29:31.254Z,18.58
2023-05-05T15:31:57.706Z,18.36
2023-05-05T15:34:24.152Z,18.27
2023-05-05T15:36:50.760Z,18.24
2023-05-05T15:39:17.356Z,18.17
2023-05-05T15:41:43.750Z,18.06
2023-05-05T15:44:11.900Z,17.89
2023-05-05T15:46:39.083Z,17.84
2023-05-05T15:49:05.535Z,17.61
2023-05-05T15:51:32.227Z,17.59
2023-05-05T15:53:59.411Z,17.48
2023-05-05T15:56:29.107Z,17.58
2023-05-05T15:58:56.415Z,17.79
2023-05-05T16:01:22.822Z,18.13
2023-05-05T16:03:49.307Z,18.37
2023-05-05T16:06:15.700Z,18.42
2023-05-05T16:08:42.116Z,18.54
2023-05-05T16:11:08.502Z,18.62
2023-05-05T16:13:34.946Z,18.77
2023-05-05T16:16:01.550Z,18.95
2023-05-05T16:18:27.915Z,19.13
2023-05-05T16:20:54.483Z,19.27
2023-05-05T16:23:20.936Z,19.25
2023-05-05T16:25:47.309Z,19.28
2023-05-05T16:28:13.745Z,19.38
2023-05-05T16:30:42.648Z,19.48
2023-05-05T16:33:09.249Z,19.59
2023-05-05T16:35:36.171Z,19.60
2023-05-05T16:38:02.622Z,19.70
2023-05-05T16:40:29.353Z,19.67
2023-05-05T16:42:55.757Z,19.64
2023-05-05T16:45:22.518Z,19.57
2023-05-05T16:47:49.081Z,19.40
2023-05-05T16:50:17.254Z,19.48
2023-05-05T16:52:43.638Z,19.51
2023-05-05T16:55:10.208Z,19.56
2023-05-05T16:57:36.944Z,19.61
2023-05-05T17:00:04.981Z,19.48
2023-05-05T17:02:31.472Z,19.30
2023-05-05T17:04:57.928Z,19.18
2023-05-05T17:07:24.339Z,19.13
2023-05-05T17:09:51.026Z,19.17
2023-05-05T17:12:17.566Z,19.21
2023-05-05T17:14:45.402Z,19.30
2023-05-05T17:17:11.886Z,19.36
2023-05-05T17:19:38.320Z,19.38
2023-05-05T17:22:04.789Z,19.33
2023-05-05T17:24:31.246Z,19.28
2023-05-05T17:26:58.355Z,19.29
2023-05-05T17:29:24.773Z,19.22
2023-05-05T17:31:51.534Z,19.14
2023-05-05T17:34:18.028Z,19.10
2023-05-05T17:36:44.405Z,19.08
2023-05-05T17:39:11.432Z,18.93
2023-05-05T17:41:37.912Z,18.89
2023-05-05T17:44:04.378Z,18.88
2023-05-05T17:46:30.853Z,18.78
2023-05-05T17:48:57.344Z,18.73
2023-05-05T17:51:23.833Z,18.72
2023-05-05T17:53:50.281Z,18.57
2023-05-05T17:56:17.977Z,18.54
2023-05-05T17:58:44.355Z,18.48
2023-05-05T18:01:19.981Z,18.41
2023-05-05T18:03:46.577Z,18.40
2023-05-05T18:06:12.988Z,18.38
2023-05-05T18:08:39.402Z,18.35
2023-05-05T18:11:05.792Z,18.30
2023-05-05T18:13:32.169Z,18.21
2023-05-05T18:15:58.599Z,18.19
2023-05-05T18:18:26.147Z,18.17
2023-05-05T18:20:52.579Z,18.07
2023-05-05T18:23:18.977Z,17.93
2023-05-05T18:25:45.446Z,17.83
2023-05-05T18:28:12.259Z,17.76
2023-05-05T18:30:38.695Z,17.70
2023-05-05T18:33:05.181Z,17.62
2023-05-05T18:35:31.662Z,17.61
2023-05-05T18:37:58.014Z,17.59
2023-05-05T18:40:24.724Z,17.52
2023-05-05T18:42:51.727Z,17.47
2023-05-05T18:45:18.225Z,17.35
2023-05-05T18:47:44.640Z,17.28
2023-05-05T18:50:11.233Z,17.22
2023-05-05T18:52:37.623Z,17.16
2023-05-05T18:55:04.236Z,17.13
2023-05-05T18:57:30.706Z,17.11
2023-05-05T18:59:57.104Z,17.05
2023-05-05T19:02:23.544Z,16.91
2023-05-05T19:04:51.315Z,16.84
2023-05-05T19:07:31.257Z,16.67
2023-05-05T19:10:00.547Z,16.51
2023-05-05T19:12:26.939Z,16.43
2023-05-05T19:14:53.339Z,16.42
2023-05-05T19:17:19.714Z,16.36
2023-05-05T19:19:46.080Z,16.32
2023-05-05T19:22:12.527Z,16.23
2023-05-05T19:24:38.944Z,16.22
2023-05-05T19:27:05.400Z,16.17
2023-05-05T19:29:32.077Z,16.00
2023-05-05T19:31:58.553Z,15.92
2023-05-05T19:34:25.008Z,15.87
2023-05-05T19:36:51.424Z,15.85
2023-05-05T19:39:17.785Z,15.86
2023-05-05T19:41:44.745Z,15.83
2023-05-05T19:44:11.125Z,15.80
2023-05-05T19:46:37.729Z,15.79
2023-05-05T19:49:04.213Z,15.75
2023-05-05T19:51:31.602Z,15.63
2023-05-05T19:53:59.396Z,15.55
2023-05-05T19:56:25.997Z,15.42
2023-05-05T19:58:57.443Z,15.38
2023-05-05T20:01:23.978Z,15.40
2023-05-05T20:03:50.980Z,15.41
2023-05-05T20:06:17.446Z,15.41
2023-05-05T20:08:43.863Z,15.41
2023-05-05T20:11:10.337Z,15.38
2023-05-05T20:13:38.209Z,15.37
2023-05-05T20:16:06.008Z,15.35
2023-05-05T20:18:32.796Z,15.33
2023-05-05T20:20:59.302Z,15.30
2023-05-05T20:23:26.580Z,15.25
2023-05-05T20:25:54.105Z,15.19
2023-05-05T20:28:20.560Z,15.13
2023-05-05T20:30:46.948Z,15.11
2023-05-05T20:33:13.311Z,15.09
2023-05-05T20:35:39.699Z,15.01
2023-05-05T20:38:06.188Z,15.00
2023-05-05T20:40:33.613Z,14.98
2023-05-05T20:42:59.978Z,14.93
2023-05-05T20:45:26.422Z,14.85
2023-05-05T20:47:53.023Z,14.79
2023-05-05T20:50:22.367Z,14.78
2023-05-05T20:52:49.386Z,14.77
2023-05-05T20:55:15.876Z,14.76
2023-05-05T20:57:42.368Z,14.76
2023-05-05T21:00:09.483Z,14.71
2023-05-05T21:02:36.376Z,14.69
2023-05-05T21:05:02.960Z,14.67
2023-05-05T21:07:31.202Z,14.64
2023-05-05T21:09:57.670Z,14.61
2023-05-05T21:12:24.156Z,14.59
2023-05-05T21:14:50.628Z,14.53
2023-05-05T21:17:17.062Z,14.50
2023-05-05T21:19:43.474Z,14.42
2023-05-05T21:22:09.864Z,14.39
2023-05-05T21:24:38.127Z,14.34
2023-05-05T21:27:04.576Z,14.35
2023-05-05T21:29:37.368Z,14.36
2023-05-05T21:32:04.946Z,14.35
2023-05-05T21:34:31.374Z,14.30
2023-05-05T21:36:58.049Z,14.26
2023-05-05T21:39:24.926Z,14.28
2023-05-05T21:41:51.285Z,14.28
2023-05-05T21:44:17.628Z,14.25
2023-05-05T21:46:44.101Z,14.20
2023-05-05T21:49:17.613Z,14.19
2023-05-05T21:51:45.609Z,14.14
2023-05-05T21:54:12.071Z,14.13
2023-05-05T21:56:38.741Z,14.07
2023-05-05T21:59:05.556Z,14.01
2023-05-05T22:01:32.128Z,13.96
2023-05-05T22:03:58.783Z,13.97
2023-05-05T22:06:25.306Z,13.98
2023-05-05T22:08:51.728Z,13.94
2023-05-05T22:11:18.540Z,13.91
2023-05-05T22:13:46.226Z,13.85
2023-05-05T22:16:12.749Z,13.82
2023-05-05T22:18:39.159Z,13.79
2023-05-05T22:21:05.777Z,13.77
2023-05-05T22:23:32.223Z,13.78
2023-05-05T22:25:58.601Z,13.78
2023-05-05T22:28:25.055Z,13.78
2023-05-05T22:30:51.497Z,13.76
2023-05-05T22:33:17.892Z,13.72
2023-05-05T22:35:44.334Z,13.69
2023-05-05T22:38:10.791Z,13.67
2023-05-05T22:40:37.160Z,13.59
2023-05-05T22:43:03.568Z,13.54
2023-05-05T22:45:30.081Z,13.49
2023-05-05T22:47:56.542Z,13.47
2023-05-05T22:50:22.954Z,13.44
2023-05-05T22:52:49.316Z,13.45
2023-05-05T22:55:16.035Z,13.49
2023-05-05T22:57:42.507Z,13.49
2023-05-05T23:00:10.547Z,13.47
2023-05-05T23:02:37.743Z,13.44
2023-05-05T23:05:04.413Z,13.37
2023-05-05T23:07:30.893Z,13.33
2023-05-05T23:09:57.275Z,13.30
2023-05-05T23:12:23.747Z,13.31
2023-05-05T23:14:50.392Z,13.30
2023-05-05T23:17:16.841Z,13.34
2023-05-05T23:19:43.246Z,13.35
2023-05-05T23:22:09.614Z,13.35
2023-05-05T23:24:35.980Z,13.36
2023-05-05T23:27:02.990Z,13.35
2023-05-05T23:29:29.680Z,13.34
2023-05-05T23:31:56.317Z,13.34
2023-05-05T23:34:22.780Z,13.30
2023-05-05T23:36:49.144Z,13.29
2023-05-05T23:39:15.532Z,13.25
2023-05-05T23:41:41.993Z,13.19
2023-05-05T23:44:08.372Z,13.19
2023-05-05T23:46:34.845Z,13.19
2023-05-05T23:49:01.250Z,13.22
2023-05-05T23:51:27.683Z,13.23
2023-05-05T23:53:56.305Z,13.23
2023-05-05T23:56:23.485Z,13.24
2023-05-05T23:58:50.009Z,13.24
